This is the latest recevied weather packets stored in our database for station/object F6JSP-13. If no packets are shown the sender has not sent any weather packets the latest 10 day(s).
| Time | Temp. | Humidity | Pressure | Rain* | Wind** | Luminosity | Snow |
|---|---|---|---|---|---|---|---|
| 1778097906 | 12.22° C | 89% | 1010.7 hPa | 0 mm | - | 0 W/m² | - |
| 1778096106 | 12.78° C | 86% | 1010.3 hPa | 0 mm | - | 0 W/m² | - |
| 1778095806 | 12.78° C | 85% | 1010.4 hPa | 0 mm | - | 0 W/m² | - |
| 1778094607 | 12.78° C | 82% | 1010.3 hPa | 0 mm | - | 1 W/m² | - |
| 1778094305 | 12.78° C | 82% | 1010.1 hPa | 0 mm | - | 1 W/m² | - |
| 1778092806 | 13.33° C | 79% | 1010 hPa | 0 mm | - | 6 W/m² | - |
| 1778091906 | 14.44° C | 75% | 1009.8 hPa | 0 mm | - | 7 W/m² | - |
| 1778089806 | 14.44° C | 70% | 1009.7 hPa | 0 mm | - | 34 W/m² | - |
| 1778088606 | 15° C | 67% | 1009.5 hPa | 0 mm | - | 55 W/m² | - |
| 1778088305 | 15° C | 68% | 1009.6 hPa | 0 mm | - | 55 W/m² | - |
| 1778087705 | 15° C | 66% | 1009.6 hPa | 0 mm | - | 56 W/m² | - |
| 1778086505 | 15° C | 64% | 1009.4 hPa | 0 mm | - | 99 W/m² | - |
| 1778083806 | 15° C | 64% | 1009.2 hPa | 0 mm | - | 268 W/m² | - |
| 1778082005 | 15° C | 65% | 1009.3 hPa | 0 mm | - | 385 W/m² | - |
| 1778078105 | 15° C | 70% | 1009.5 hPa | 0 mm | - | 341 W/m² | - |
| 1778077505 | 15° C | 71% | 1009.5 hPa | 0 mm | - | 285 W/m² | - |
| 1778074206 | 15.56° C | 72% | 1009.2 hPa | 0 mm | - | 400 W/m² | - |
| 1778073605 | 15.56° C | 69% | 1009.3 hPa | 0 mm | - | 685 W/m² | - |
| 1778070906 | 14.44° C | 75% | 1009.2 hPa | 0 mm | - | 339 W/m² | - |
| 1778069705 | 14.44° C | 74% | 1009.1 hPa | 0 mm | - | 455 W/m² | - |
| 1778068205 | 13.89° C | 77% | 1009.1 hPa | 0 mm | - | 347 W/m² | - |
| 1778067905 | 13.33° C | 75% | 1009.1 hPa | 0 mm | - | 346 W/m² | - |
| 1778062505 | 12.78° C | 87% | 1008.9 hPa | 0 mm | - | 301 W/m² | - |
| 1778062205 | 12.22° C | 88% | 1008.9 hPa | 0 mm | - | 268 W/m² | - |
| 1778059806 | 11.67° C | 93% | 1008.4 hPa | 0 mm | - | 252 W/m² | - |
* Rain latest hour (hover to see other rain measurements)
** Current wind speed in m/s (hover to see current wind gust speed)